Time;durP1;ratioP1;P1;durP2;ratioP2;P2;SDS_P1;SDS_P2;PMS_P1;PMS_P2;Temp;Humidity;BMP_temperature;BMP_pressure;BME280_temperature;BME280_humidity;BME280_pressure;Samples;Min_cycle;Max_cycle;Signal;HPM_P1;HPM_P2
2021/10/07 00:00:53;;;;;;;;;;;;;;;2.94;61.20;102727.38;4874277;29;20063;-76
2021/10/07 00:03:19;;;;;;;;;;;;;;;2.93;61.56;102725.59;4874135;29;19928;-76
2021/10/07 00:05:45;;;;;;;;;;;;;;;2.94;61.14;102732.53;4874648;29;19930;-76
2021/10/07 00:08:11;;;;;;;;;;;;;;;2.91;61.32;102734.88;4860071;29;20018;-77
2021/10/07 00:10:36;;;;;;;;;;;;;;;2.87;61.28;102740.59;4887747;29;19919;-78
2021/10/07 00:13:02;;;;;;;;;;;;;;;2.83;61.35;102736.91;4893642;29;19912;-77
2021/10/07 00:15:27;;;;;;;;;;;;;;;2.80;61.21;102740.94;4882910;29;19912;-77
2021/10/07 00:17:54;;;;;;;;;;;;;;;2.78;61.23;102735.69;4899615;29;19992;-76
2021/10/07 00:20:19;;;;;;;;;;;;;;;2.76;61.23;102737.25;4875427;29;19932;-77
2021/10/07 00:22:46;;;;;;;;;;;;;;;2.76;61.14;102739.84;4873404;29;19972;-76
2021/10/07 00:25:12;;;;;;;;;;;;;;;2.70;61.12;102737.75;4858712;29;19927;-76
2021/10/07 00:27:38;;;;;;;;;;;;;;;2.68;60.86;102735.81;4874132;29;19927;-77
2021/10/07 00:30:21;;;;;;;;;;;;;;;2.61;61.48;102742.22;4876687;29;20159;-77
2021/10/07 00:33:05;;;;;;;;;;;;;;;2.63;61.45;102738.06;4884273;29;19923;-76
2021/10/07 00:40:59;;;;;;;;;;;;;;;2.68;61.45;102739.31;4872997;29;20026;-76
2021/10/07 00:43:24;;;;;;;;;;;;;;;2.66;61.34;102739.97;4874071;29;20103;-76
2021/10/07 00:46:01;;;;;;;;;;;;;;;2.61;61.12;102739.66;4868098;29;19927;-77
2021/10/07 00:48:27;;;;;;;;;;;;;;;2.55;61.10;102739.19;4873622;29;19923;-76
2021/10/07 00:50:52;;;;;;;;;;;;;;;2.49;61.25;102736.22;4874791;29;19931;-76
2021/10/07 00:53:18;;;;;;;;;;;;;;;2.50;61.36;102744.03;4871831;29;19991;-75
2021/10/07 00:55:45;;;;;;;;;;;;;;;2.51;61.34;102744.94;4873969;29;19928;-76
2021/10/07 00:58:11;;;;;;;;;;;;;;;2.49;61.51;102751.63;4856477;29;19938;-75
2021/10/07 01:00:36;;;;;;;;;;;;;;;2.43;61.72;102752.06;4884652;29;19915;-76
2021/10/07 01:03:02;;;;;;;;;;;;;;;2.43;61.78;102761.47;4895355;29;19960;-77
2021/10/07 01:05:28;;;;;;;;;;;;;;;2.39;61.46;102760.38;4876836;29;19931;-77
2021/10/07 01:07:55;;;;;;;;;;;;;;;2.43;61.78;102756.34;4875928;29;19927;-76
2021/10/07 01:10:21;;;;;;;;;;;;;;;2.47;61.80;102758.34;4874219;29;19976;-76
2021/10/07 01:12:46;;;;;;;;;;;;;;;2.47;61.54;102751.50;4875419;29;19924;-76
2021/10/07 01:15:12;;;;;;;;;;;;;;;2.44;61.36;102760.69;4874656;29;19930;-77
2021/10/07 01:17:37;;;;;;;;;;;;;;;2.34;61.37;102761.72;4875013;29;20420;-76
2021/10/07 01:20:04;;;;;;;;;;;;;;;2.29;61.47;102766.53;4874480;29;19927;-76
2021/10/07 01:22:30;;;;;;;;;;;;;;;2.25;61.34;102767.09;4874175;29;19928;-76
2021/10/07 01:24:56;;;;;;;;;;;;;;;2.27;61.93;102768.09;4857547;29;19979;-76
2021/10/07 01:27:24;;;;;;;;;;;;;;;2.24;61.82;102770.44;4872209;29;19975;-77
2021/10/07 01:29:54;;;;;;;;;;;;;;;2.25;61.94;102765.38;4872264;29;19955;-75
2021/10/07 01:32:20;;;;;;;;;;;;;;;2.28;62.19;102766.41;4873770;29;19931;-76
2021/10/07 01:34:45;;;;;;;;;;;;;;;2.31;62.00;102764.97;4874222;29;19932;-76
2021/10/07 01:37:11;;;;;;;;;;;;;;;2.33;61.97;102773.66;4881053;29;19924;-76
2021/10/07 01:39:36;;;;;;;;;;;;;;;2.35;61.84;102773.78;4872035;29;20023;-76
2021/10/07 01:42:03;;;;;;;;;;;;;;;2.32;62.22;102769.28;4876195;29;20014;-77
2021/10/07 01:44:29;;;;;;;;;;;;;;;2.29;61.83;102774.25;4877163;29;20447;-77
2021/10/07 01:46:54;;;;;;;;;;;;;;;2.19;61.83;102776.91;4877449;29;19940;-76
2021/10/07 01:49:20;;;;;;;;;;;;;;;2.15;62.24;102773.22;4876514;29;19924;-76
2021/10/07 01:51:46;;;;;;;;;;;;;;;2.16;62.02;102774.09;4879955;29;19923;-76
2021/10/07 01:54:11;;;;;;;;;;;;;;;2.16;62.33;102780.16;4874859;29;19954;-76
2021/10/07 01:56:37;;;;;;;;;;;;;;;2.15;62.38;102780.03;4876596;29;20849;-76
2021/10/07 01:59:05;;;;;;;;;;;;;;;2.11;62.30;102773.78;4877621;29;19935;-76
2021/10/07 02:01:31;;;;;;;;;;;;;;;2.11;62.38;102778.91;4886325;29;19951;-76
2021/10/07 02:03:57;;;;;;;;;;;;;;;2.11;62.14;102776.34;4896852;29;19915;-76
2021/10/07 02:06:22;;;;;;;;;;;;;;;2.15;62.18;102780.03;4896472;29;19927;-76
2021/10/07 02:08:47;;;;;;;;;;;;;;;2.14;62.24;102779.16;4901098;29;19955;-75
2021/10/07 02:11:13;;;;;;;;;;;;;;;2.13;62.46;102773.88;4877813;29;20814;-76
2021/10/07 02:13:38;;;;;;;;;;;;;;;2.08;62.00;102779.59;4876080;29;19924;-77
2021/10/07 02:16:04;;;;;;;;;;;;;;;2.05;62.89;102779.38;4877429;29;20452;-76
2021/10/07 02:18:30;;;;;;;;;;;;;;;2.05;62.17;102781.94;4878431;29;19970;-76
2021/10/07 02:20:56;;;;;;;;;;;;;;;2.05;62.01;102779.38;4878627;29;20026;-76
2021/10/07 02:23:21;;;;;;;;;;;;;;;2.04;62.12;102784.38;4874474;29;19928;-76
2021/10/07 02:25:47;;;;;;;;;;;;;;;2.00;62.54;102780.69;4844136;29;19984;-77
2021/10/07 02:28:13;;;;;;;;;;;;;;;1.98;62.33;102781.38;4875234;29;19923;-76
2021/10/07 02:30:40;;;;;;;;;;;;;;;1.98;62.26;102783.94;4875688;29;19931;-76
2021/10/07 02:33:06;;;;;;;;;;;;;;;1.96;62.64;102781.25;4859894;29;19923;-77
2021/10/07 02:35:31;;;;;;;;;;;;;;;1.92;62.22;102781.78;4879551;29;19988;-77
2021/10/07 02:37:57;;;;;;;;;;;;;;;1.90;62.27;102781.69;4879776;29;19928;-76
2021/10/07 02:40:23;;;;;;;;;;;;;;;1.88;61.95;102785.81;4862684;29;19923;-78
2021/10/07 02:42:49;;;;;;;;;;;;;;;1.88;62.42;102787.47;4878698;29;19923;-76
2021/10/07 02:45:15;;;;;;;;;;;;;;;1.83;61.99;102788.81;4874668;29;19935;-77
2021/10/07 02:47:41;;;;;;;;;;;;;;;1.76;62.18;102795.19;4874790;29;19923;-76
2021/10/07 02:50:07;;;;;;;;;;;;;;;1.75;62.33;102789.13;4873828;29;20476;-76
2021/10/07 02:52:33;;;;;;;;;;;;;;;1.74;62.49;102794.16;4875111;29;20010;-77
2021/10/07 02:54:59;;;;;;;;;;;;;;;1.77;62.16;102792.72;4874480;29;20061;-77
2021/10/07 02:57:24;;;;;;;;;;;;;;;1.79;62.68;102798.88;4875285;29;19928;-75
2021/10/07 02:59:50;;;;;;;;;;;;;;;1.78;62.36;102798.72;4875114;29;20872;-77
2021/10/07 03:02:16;;;;;;;;;;;;;;;1.75;62.19;102790.81;4876607;29;19924;-77
2021/10/07 03:04:43;;;;;;;;;;;;;;;1.70;62.51;102795.59;4874806;29;19935;-78
2021/10/07 03:07:11;;;;;;;;;;;;;;;1.71;62.33;102792.25;4886215;29;19932;-76
2021/10/07 03:09:37;;;;;;;;;;;;;;;1.71;62.47;102791.38;4897351;29;20023;-75
2021/10/07 03:12:03;;;;;;;;;;;;;;;1.72;62.38;102798.28;4881884;29;20411;-76
2021/10/07 03:14:29;;;;;;;;;;;;;;;1.67;62.24;102794.47;4861813;29;19924;-75
2021/10/07 03:16:55;;;;;;;;;;;;;;;1.66;62.35;102798.69;4877244;29;19923;-76
2021/10/07 03:19:20;;;;;;;;;;;;;;;1.41;62.18;102760.03;4863147;29;19927;-77
2021/10/07 03:21:46;;;;;;;;;;;;;;;1.61;62.54;102805.19;4874539;29;19953;-77
2021/10/07 03:24:11;;;;;;;;;;;;;;;1.57;62.40;102798.03;4875260;29;19924;-79
2021/10/07 03:26:37;;;;;;;;;;;;;;;1.53;61.91;102796.00;4872959;29;20667;-78
2021/10/07 03:29:03;;;;;;;;;;;;;;;1.46;62.37;102804.91;4858102;29;19924;-77
2021/10/07 03:31:28;;;;;;;;;;;;;;;1.48;62.65;102800.78;4874967;29;20289;-76
2021/10/07 03:33:54;;;;;;;;;;;;;;;1.37;62.04;102787.13;4872911;29;19928;-77
2021/10/07 03:36:19;;;;;;;;;;;;;;;1.47;62.74;102791.31;4874814;29;20341;-78
2021/10/07 03:38:45;;;;;;;;;;;;;;;1.53;62.48;102806.25;4873549;29;19928;-76
2021/10/07 03:41:11;;;;;;;;;;;;;;;1.49;62.43;102793.19;4858381;29;19928;-78
2021/10/07 03:43:36;;;;;;;;;;;;;;;1.52;62.28;102799.34;4874427;29;20026;-76
2021/10/07 03:46:02;;;;;;;;;;;;;;;1.51;62.12;102798.47;4872566;29;19972;-77
2021/10/07 03:48:27;;;;;;;;;;;;;;;1.52;62.31;102802.81;4873846;29;19951;-77
2021/10/07 03:50:54;;;;;;;;;;;;;;;1.54;62.44;102802.91;4878234;29;19923;-77
2021/10/07 03:53:19;;;;;;;;;;;;;;;1.57;62.32;102810.84;4888708;29;19980;-79
2021/10/07 03:55:45;;;;;;;;;;;;;;;1.61;62.17;102802.63;4909231;29;19912;-79
2021/10/07 03:58:10;;;;;;;;;;;;;;;1.67;62.00;102805.63;4899764;29;19955;-77
2021/10/07 04:00:36;;;;;;;;;;;;;;;1.75;62.01;102803.66;4889735;29;20410;-78
2021/10/07 04:03:03;;;;;;;;;;;;;;;1.84;62.21;102804.34;4873419;29;19934;-78
2021/10/07 04:05:29;;;;;;;;;;;;;;;1.98;61.85;102807.94;4874150;29;19924;-80
2021/10/07 04:07:55;;;;;;;;;;;;;;;2.13;62.00;102802.13;4875512;29;19923;-77
2021/10/07 04:10:20;;;;;;;;;;;;;;;2.28;61.82;102803.28;4876969;29;19923;-78
2021/10/07 04:12:46;;;;;;;;;;;;;;;2.43;61.94;102802.59;4873287;29;20006;-78
2021/10/07 04:15:14;;;;;;;;;;;;;;;2.57;61.63;102801.91;4874854;29;19928;-76
2021/10/07 04:17:42;;;;;;;;;;;;;;;2.86;61.73;102797.97;4872922;29;19931;-78
2021/10/07 04:20:08;;;;;;;;;;;;;;;3.24;61.70;102801.44;4874142;29;19928;-78
2021/10/07 04:22:34;;;;;;;;;;;;;;;4.04;61.71;102790.47;4874756;29;19923;-77
2021/10/07 04:25:03;;;;;;;;;;;;;;;5.24;60.77;102789.41;4842853;29;19927;-79
2021/10/07 04:27:30;;;;;;;;;;;;;;;6.44;59.36;102780.81;4874484;29;19935;-76
2021/10/07 04:29:56;;;;;;;;;;;;;;;7.54;58.42;102766.81;4873418;29;20388;-77
2021/10/07 04:32:21;;;;;;;;;;;;;;;8.54;57.02;102756.03;4878919;29;19984;-80
2021/10/07 04:34:49;;;;;;;;;;;;;;;9.52;55.90;102757.75;4846259;29;19923;-79
2021/10/07 04:37:15;;;;;;;;;;;;;;;10.46;55.14;102752.91;4874464;29;19931;-77
2021/10/07 04:39:41;;;;;;;;;;;;;;;11.24;53.68;102751.44;4874241;29;20416;-82
2021/10/07 04:42:06;;;;;;;;;;;;;;;11.97;51.78;102748.66;4874810;29;19924;-77
2021/10/07 04:44:32;;;;;;;;;;;;;;;12.74;50.92;102742.31;4873664;29;19928;-75
2021/10/07 04:47:00;;;;;;;;;;;;;;;13.51;49.64;102748.81;4858406;29;19924;-77
2021/10/07 04:49:26;;;;;;;;;;;;;;;14.32;48.79;102738.53;4874468;29;20435;-77
2021/10/07 04:51:51;;;;;;;;;;;;;;;15.10;47.36;102729.69;4874407;29;20067;-76
2021/10/07 04:54:20;;;;;;;;;;;;;;;15.84;46.91;102722.19;4874014;29;19940;-77
2021/10/07 04:56:45;;;;;;;;;;;;;;;16.62;45.82;102719.78;4873508;29;19968;-80
2021/10/07 04:59:14;;;;;;;;;;;;;;;17.41;44.47;102718.03;4861043;29;19927;-76
2021/10/07 05:01:40;;;;;;;;;;;;;;;18.04;43.54;102716.78;4876543;29;19924;-77
2021/10/07 05:04:08;;;;;;;;;;;;;;;18.69;42.56;102721.47;4858844;29;19923;-76
2021/10/07 05:06:37;;;;;;;;;;;;;;;19.33;41.40;102709.31;4872092;29;20031;-76
2021/10/07 05:09:02;;;;;;;;;;;;;;;19.88;40.12;102710.22;4872098;29;20545;-77
2021/10/07 05:11:28;;;;;;;;;;;;;;;20.53;39.42;102710.88;4874288;29;19928;-76
2021/10/07 05:13:53;;;;;;;;;;;;;;;21.19;38.78;102706.13;4884389;29;19923;-78
2021/10/07 05:16:46;;;;;;;;;;;;;;;21.74;37.88;102712.75;4884265;29;19935;-77
2021/10/07 05:19:11;;;;;;;;;;;;;;;22.47;36.80;102711.09;4876940;29;19982;-76
2021/10/07 05:21:39;;;;;;;;;;;;;;;23.04;35.69;102707.66;4860048;29;19972;-77
2021/10/07 05:24:04;;;;;;;;;;;;;;;23.58;35.13;102697.91;4872443;29;19995;-77
2021/10/07 05:26:31;;;;;;;;;;;;;;;24.21;34.47;102690.53;4876654;29;20297;-76
2021/10/07 05:28:57;;;;;;;;;;;;;;;24.82;33.82;102692.81;4875145;29;19930;-75
2021/10/07 05:31:26;;;;;;;;;;;;;;;25.49;32.64;102691.19;4859781;29;20027;-77
2021/10/07 05:33:51;;;;;;;;;;;;;;;26.01;31.14;102692.44;4874066;29;20003;-78
2021/10/07 05:36:17;;;;;;;;;;;;;;;26.21;31.42;102684.78;4875261;29;20349;-76
2021/10/07 05:38:43;;;;;;;;;;;;;;;26.61;30.41;102683.56;4874579;29;19934;-77
2021/10/07 05:41:08;;;;;;;;;;;;;;;27.03;30.17;102691.16;4877044;29;20030;-77
2021/10/07 05:43:35;;;;;;;;;;;;;;;27.51;29.85;102680.69;4887230;29;19943;-77
2021/10/07 05:46:00;;;;;;;;;;;;;;;28.09;29.08;102679.50;4883636;29;19919;-77
2021/10/07 05:48:36;;;;;;;;;;;;;;;28.63;27.80;102674.75;4900418;29;19953;-77
2021/10/07 05:51:05;;;;;;;;;;;;;;;28.95;27.48;102677.09;4875224;29;19979;-78
2021/10/07 05:53:31;;;;;;;;;;;;;;;29.50;26.82;102667.63;4877511;29;19931;-77
2021/10/07 05:55:57;;;;;;;;;;;;;;;30.04;26.51;102667.91;4879965;29;19980;-78
2021/10/07 05:58:22;;;;;;;;;;;;;;;30.62;25.26;102668.78;4878189;29;20023;-78
2021/10/07 06:00:48;;;;;;;;;;;;;;;31.12;25.03;102661.81;4877907;29;19924;-76
2021/10/07 06:03:13;;;;;;;;;;;;;;;31.49;24.29;102659.91;4860092;29;19924;-77
2021/10/07 06:05:42;;;;;;;;;;;;;;;32.03;24.26;102657.97;4874995;29;20030;-78
2021/10/07 06:08:08;;;;;;;;;;;;;;;32.44;23.55;102652.13;4846177;29;19924;-77
2021/10/07 06:10:34;;;;;;;;;;;;;;;32.90;22.93;102653.97;4875622;29;20002;-77
2021/10/07 06:13:00;;;;;;;;;;;;;;;33.20;22.47;102653.94;4873150;29;20377;-77
2021/10/07 06:15:28;;;;;;;;;;;;;;;33.71;21.85;102646.41;4876225;29;20416;-77
2021/10/07 06:17:54;;;;;;;;;;;;;;;33.97;21.69;102647.50;4878744;29;20372;-79
2021/10/07 06:20:39;;;;;;;;;;;;;;;34.38;21.30;102652.00;4872748;29;19928;-76
2021/10/07 06:23:04;;;;;;;;;;;;;;;34.86;20.83;102648.00;4876329;29;20367;-76
2021/10/07 06:25:31;;;;;;;;;;;;;;;35.30;19.94;102643.19;4875265;29;20381;-77
2021/10/07 06:28:05;;;;;;;;;;;;;;;35.66;19.66;102638.84;4853154;29;19931;-78
2021/10/07 06:30:31;;;;;;;;;;;;;;;36.11;18.95;102646.47;4872868;29;19924;-78
2021/10/07 06:32:58;;;;;;;;;;;;;;;36.43;18.68;102642.34;4859294;29;20391;-76
2021/10/07 06:35:24;;;;;;;;;;;;;;;36.86;18.25;102649.06;4870963;29;20039;-77
2021/10/07 06:37:51;;;;;;;;;;;;;;;37.07;18.39;102639.31;4876520;29;20409;-76
2021/10/07 06:40:19;;;;;;;;;;;;;;;37.39;18.11;102645.88;4877446;29;19935;-77
2021/10/07 06:43:06;;;;;;;;;;;;;;;37.74;17.75;102642.19;4863817;29;20339;-77
2021/10/07 06:45:33;;;;;;;;;;;;;;;37.79;17.29;102639.97;4876074;29;19928;-77
2021/10/07 06:47:58;;;;;;;;;;;;;;;37.99;16.87;102642.94;4876562;29;20127;-77
2021/10/07 06:50:34;;;;;;;;;;;;;;;38.44;16.66;102650.09;4860388;29;19939;-77
2021/10/07 06:53:00;;;;;;;;;;;;;;;38.96;16.22;102655.69;4875360;29;20295;-77
2021/10/07 06:55:35;;;;;;;;;;;;;;;39.34;16.21;102647.91;4874832;29;19924;-77
2021/10/07 06:58:03;;;;;;;;;;;;;;;39.17;15.21;102641.22;4844297;29;19931;-79
2021/10/07 07:00:29;;;;;;;;;;;;;;;38.78;15.98;102658.13;4874478;29;19930;-77
2021/10/07 07:02:56;;;;;;;;;;;;;;;39.33;15.40;102658.94;4874306;29;19927;-78
2021/10/07 07:05:22;;;;;;;;;;;;;;;39.82;15.23;102648.28;4874285;29;19983;-78
2021/10/07 07:07:47;;;;;;;;;;;;;;;40.47;14.81;102645.97;4875201;29;19928;-76
2021/10/07 07:10:17;;;;;;;;;;;;;;;41.01;13.99;102648.19;4874712;29;20885;-76
2021/10/07 07:12:47;;;;;;;;;;;;;;;41.23;13.96;102646.16;4858203;29;19924;-77
2021/10/07 07:15:39;;;;;;;;;;;;;;;41.59;13.83;102643.59;4859593;29;20015;-78
2021/10/07 07:18:04;;;;;;;;;;;;;;;40.98;14.28;102648.50;4870962;29;19931;-76
2021/10/07 07:20:30;;;;;;;;;;;;;;;40.52;14.28;102642.78;4890447;29;20412;-78
2021/10/07 07:22:55;;;;;;;;;;;;;;;40.53;14.17;102644.50;4877094;29;20269;-77
2021/10/07 07:25:21;;;;;;;;;;;;;;;40.03;14.12;102643.59;4876640;29;20066;-77
2021/10/07 07:28:00;;;;;;;;;;;;;;;39.94;13.68;102640.84;4859707;29;20385;-77
2021/10/07 07:30:26;;;;;;;;;;;;;;;39.86;13.41;102642.41;4873053;29;19963;-80
2021/10/07 07:32:57;;;;;;;;;;;;;;;40.57;13.25;102645.06;4875308;29;20026;-79
2021/10/07 07:35:22;;;;;;;;;;;;;;;40.57;12.94;102642.34;4887292;29;19927;-78
2021/10/07 07:37:48;;;;;;;;;;;;;;;41.03;12.33;102642.63;4883492;29;20062;-79
2021/10/07 07:40:23;;;;;;;;;;;;;;;40.39;12.95;102642.22;4882075;29;19936;-78
2021/10/07 07:42:48;;;;;;;;;;;;;;;41.28;12.58;102643.84;4881843;29;19974;-77
2021/10/07 07:45:15;;;;;;;;;;;;;;;41.84;11.75;102643.88;4875198;29;19928;-77
2021/10/07 07:47:41;;;;;;;;;;;;;;;41.96;12.10;102637.22;4874032;29;19950;-78
2021/10/07 07:50:08;;;;;;;;;;;;;;;41.28;12.43;102641.13;4875354;29;20022;-77
2021/10/07 07:52:34;;;;;;;;;;;;;;;41.68;11.71;102639.94;4875183;29;19940;-79
2021/10/07 07:54:59;;;;;;;;;;;;;;;41.80;11.20;102639.75;4856869;29;19928;-78
2021/10/07 07:57:25;;;;;;;;;;;;;;;42.14;10.98;102645.44;4874154;29;19930;-77
2021/10/07 07:59:50;;;;;;;;;;;;;;;42.47;11.21;102638.56;4857322;29;19956;-78
2021/10/07 08:02:16;;;;;;;;;;;;;;;42.04;10.83;102636.44;4856663;29;20023;-77
2021/10/07 08:04:42;;;;;;;;;;;;;;;41.53;10.57;102638.75;4873732;29;19924;-77
2021/10/07 08:07:08;;;;;;;;;;;;;;;40.93;10.89;102642.63;4874473;29;20500;-78
2021/10/07 08:09:38;;;;;;;;;;;;;;;39.95;11.52;102632.50;4860085;29;19928;-76
2021/10/07 08:12:05;;;;;;;;;;;;;;;40.73;11.25;102631.72;4874469;29;19935;-77
2021/10/07 08:14:35;;;;;;;;;;;;;;;41.43;10.61;102629.69;4872074;29;20265;-76
2021/10/07 08:17:01;;;;;;;;;;;;;;;41.70;10.39;102632.47;4857446;29;20246;-76
2021/10/07 08:19:27;;;;;;;;;;;;;;;41.61;10.14;102627.91;4874168;29;19923;-76
2021/10/07 08:21:53;;;;;;;;;;;;;;;40.08;10.39;102636.84;4875531;29;19930;-76
2021/10/07 08:24:22;;;;;;;;;;;;;;;40.61;10.07;102639.19;4857400;29;19924;-76
2021/10/07 08:26:47;;;;;;;;;;;;;;;41.00;9.72;102637.44;4856317;29;19935;-78
2021/10/07 08:29:17;;;;;;;;;;;;;;;41.46;9.92;102630.28;4872731;29;19928;-78
2021/10/07 08:31:45;;;;;;;;;;;;;;;41.76;9.59;102630.97;4872626;29;20372;-75
2021/10/07 08:34:14;;;;;;;;;;;;;;;41.72;9.69;102635.03;4853738;29;19924;-79
2021/10/07 08:36:43;;;;;;;;;;;;;;;41.96;9.72;102631.75;4873966;29;20013;-76
2021/10/07 08:39:09;;;;;;;;;;;;;;;41.90;9.25;102635.06;4874979;29;20345;-76
2021/10/07 08:41:36;;;;;;;;;;;;;;;41.24;9.11;102639.69;4875666;29;19935;-79
2021/10/07 08:44:02;;;;;;;;;;;;;;;40.41;8.39;102630.16;4873261;29;19979;-77
2021/10/07 08:46:49;;;;;;;;;;;;;;;39.13;9.47;102637.03;4871043;29;20356;-77
2021/10/07 08:49:17;;;;;;;;;;;;;;;39.36;9.47;102632.31;4869073;29;20285;-78
2021/10/07 08:51:43;;;;;;;;;;;;;;;39.95;9.64;102631.66;4859822;29;19930;-79
2021/10/07 08:54:09;;;;;;;;;;;;;;;40.24;9.39;102629.00;4877811;29;19975;-78
2021/10/07 08:56:35;;;;;;;;;;;;;;;38.89;9.49;102634.59;4875834;29;20546;-76
2021/10/07 08:59:01;;;;;;;;;;;;;;;38.77;9.25;102626.47;4844113;29;20046;-77
2021/10/07 09:01:44;;;;;;;;;;;;;;;39.49;9.70;102618.47;4860138;29;19947;-79
2021/10/07 09:04:23;;;;;;;;;;;;;;;40.90;9.18;102615.63;4871507;29;19934;-79
2021/10/07 09:06:55;;;;;;;;;;;;;;;41.83;8.58;102614.81;4876744;29;20460;-80
2021/10/07 09:09:22;;;;;;;;;;;;;;;41.56;8.29;102622.06;4876490;29;20405;-79
2021/10/07 09:12:01;;;;;;;;;;;;;;;41.43;8.48;102625.09;4876864;29;19924;-77
2021/10/07 09:14:28;;;;;;;;;;;;;;;41.65;8.88;102628.47;4859534;29;20083;-77
2021/10/07 09:16:54;;;;;;;;;;;;;;;41.21;8.39;102632.66;4876547;29;20681;-78
2021/10/07 09:19:24;;;;;;;;;;;;;;;39.58;9.08;102625.81;4878703;29;19923;-78
2021/10/07 09:21:51;;;;;;;;;;;;;;;38.95;9.45;102624.03;4864875;29;19932;-78
2021/10/07 09:24:25;;;;;;;;;;;;;;;39.08;9.39;102609.38;4898364;29;19952;-78
2021/10/07 09:27:09;;;;;;;;;;;;;;;39.63;9.19;102598.16;4885102;29;19916;-78
2021/10/07 09:29:36;;;;;;;;;;;;;;;40.42;8.43;102601.91;4901092;29;19920;-78
2021/10/07 09:32:02;;;;;;;;;;;;;;;39.24;9.12;102584.38;4892383;29;19924;-78
2021/10/07 09:34:38;;;;;;;;;;;;;;;39.72;8.96;102588.28;4879180;29;20002;-77
2021/10/07 09:37:15;;;;;;;;;;;;;;;39.91;8.66;102585.63;4878857;29;19934;-77
2021/10/07 09:39:45;;;;;;;;;;;;;;;39.76;9.06;102592.50;4877353;29;19930;-78
2021/10/07 09:42:31;;;;;;;;;;;;;;;40.33;8.73;102586.38;4845440;29;19925;-78
2021/10/07 09:45:06;;;;;;;;;;;;;;;40.50;8.74;102574.75;4857593;29;20341;-78
2021/10/07 09:47:42;;;;;;;;;;;;;;;39.80;9.00;102577.59;4876818;29;19957;-77
2021/10/07 09:50:30;;;;;;;;;;;;;;;40.03;9.00;102577.34;4876773;29;19992;-79
2021/10/07 09:53:17;;;;;;;;;;;;;;;41.09;8.44;102574.66;4877408;29;19924;-78
2021/10/07 09:55:53;;;;;;;;;;;;;;;40.95;8.23;102575.97;4878236;29;19924;-78
2021/10/07 09:58:18;;;;;;;;;;;;;;;38.78;9.11;102586.53;4877271;29;19946;-78
2021/10/07 10:00:45;;;;;;;;;;;;;;;34.43;10.11;102591.44;4880964;29;20766;-79
2021/10/07 10:03:12;;;;;;;;;;;;;;;30.76;12.20;102599.09;4879005;29;19934;-79
2021/10/07 10:05:38;;;;;;;;;;;;;;;29.21;13.05;102598.22;4862785;29;20361;-78
2021/10/07 10:08:05;;;;;;;;;;;;;;;28.28;13.53;102593.16;4878673;29;19957;-78
2021/10/07 10:10:31;;;;;;;;;;;;;;;27.33;13.81;102591.31;4844559;29;19927;-77
2021/10/07 10:12:56;;;;;;;;;;;;;;;26.38;13.91;102602.44;4876177;29;20315;-78
2021/10/07 10:15:22;;;;;;;;;;;;;;;25.48;14.41;102597.06;4867117;29;19979;-79
2021/10/07 10:17:48;;;;;;;;;;;;;;;24.58;14.51;102596.63;4860284;29;19959;-79
2021/10/07 10:20:31;;;;;;;;;;;;;;;23.20;15.28;102590.53;4876243;29;19930;-79
2021/10/07 10:23:01;;;;;;;;;;;;;;;22.74;15.45;102595.72;4875718;29;19930;-78
2021/10/07 10:25:28;;;;;;;;;;;;;;;22.38;15.80;102598.88;4874799;29;20379;-79
2021/10/07 10:27:59;;;;;;;;;;;;;;;22.02;15.69;102594.94;4876696;29;19923;-78
2021/10/07 10:30:28;;;;;;;;;;;;;;;21.56;16.17;102594.56;4876098;29;19951;-75
2021/10/07 10:32:55;;;;;;;;;;;;;;;21.12;16.11;102602.06;4876002;29;19931;-77
2021/10/07 10:35:41;;;;;;;;;;;;;;;20.54;16.35;102611.28;4858089;29;19952;-75
2021/10/07 10:38:08;;;;;;;;;;;;;;;19.75;16.99;102607.16;4874931;29;20027;-75
2021/10/07 10:40:37;;;;;;;;;;;;;;;19.15;17.48;102604.63;4840001;29;20014;-74
2021/10/07 10:43:17;;;;;;;;;;;;;;;18.57;17.98;102608.91;4878137;29;19923;-76
2021/10/07 10:45:49;;;;;;;;;;;;;;;18.41;18.15;102613.31;4859359;29;19930;-75
2021/10/07 10:48:34;;;;;;;;;;;;;;;18.15;18.34;102606.19;4858676;29;19928;-76
2021/10/07 10:51:03;;;;;;;;;;;;;;;18.00;18.58;102602.59;4872873;29;20300;-76
2021/10/07 10:53:47;;;;;;;;;;;;;;;17.88;18.52;102605.13;4878316;29;20430;-74
2021/10/07 10:56:15;;;;;;;;;;;;;;;17.53;18.78;102611.09;4875098;29;19924;-77
2021/10/07 10:58:54;;;;;;;;;;;;;;;17.11;19.08;102602.88;4876474;29;19931;-75
2021/10/07 11:01:23;;;;;;;;;;;;;;;16.85;19.26;102609.63;4872585;29;19979;-75
2021/10/07 11:04:10;;;;;;;;;;;;;;;16.33;19.76;102603.81;4843259;29;19970;-75
2021/10/07 11:06:56;;;;;;;;;;;;;;;16.11;20.15;102595.69;4876468;29;19980;-76
2021/10/07 11:09:41;;;;;;;;;;;;;;;15.99;20.40;102599.03;4894372;29;19923;-75
2021/10/07 11:12:12;;;;;;;;;;;;;;;15.78;20.66;102602.19;4855080;29;19969;-77
2021/10/07 11:14:40;;;;;;;;;;;;;;;15.48;20.98;102600.91;4877804;29;19927;-76
2021/10/07 11:17:10;;;;;;;;;;;;;;;15.10;21.62;102604.69;4890606;29;19936;-76
2021/10/07 11:19:36;;;;;;;;;;;;;;;14.93;22.00;102593.88;4881271;29;20372;-75
2021/10/07 11:22:17;;;;;;;;;;;;;;;14.85;22.35;102595.50;4895467;29;19923;-76
2021/10/07 11:24:47;;;;;;;;;;;;;;;14.86;22.40;102589.41;4878739;29;19992;-75
2021/10/07 11:27:13;;;;;;;;;;;;;;;14.62;22.24;102580.22;4876966;29;19934;-76
2021/10/07 11:29:38;;;;;;;;;;;;;;;14.41;22.93;102594.69;4878195;29;19923;-75
2021/10/07 11:32:04;;;;;;;;;;;;;;;14.37;22.92;102590.22;4883070;29;19931;-73
2021/10/07 11:34:29;;;;;;;;;;;;;;;14.17;23.47;102584.56;4866426;29;19986;-75
2021/10/07 11:36:56;;;;;;;;;;;;;;;14.19;23.42;102587.25;4875699;29;19931;-75
2021/10/07 11:39:21;;;;;;;;;;;;;;;14.13;23.61;102585.34;4845192;29;19966;-77
2021/10/07 11:41:50;;;;;;;;;;;;;;;14.15;23.56;102581.03;4873193;29;19952;-75
2021/10/07 11:44:18;;;;;;;;;;;;;;;14.15;23.47;102579.31;4858138;29;19974;-75
2021/10/07 11:46:44;;;;;;;;;;;;;;;14.15;23.34;102573.19;4872596;29;19955;-76
2021/10/07 11:49:13;;;;;;;;;;;;;;;14.15;23.36;102578.41;4872491;29;19931;-76
2021/10/07 11:51:44;;;;;;;;;;;;;;;13.93;23.83;102574.47;4873526;29;20049;-75
2021/10/07 11:54:17;;;;;;;;;;;;;;;13.88;24.14;102578.72;4873371;29;19923;-76
2021/10/07 11:56:42;;;;;;;;;;;;;;;13.59;24.09;102527.53;4872098;29;20406;-75
2021/10/07 11:59:11;;;;;;;;;;;;;;;13.93;24.25;102579.72;4873023;29;19947;-75
2021/10/07 12:01:38;;;;;;;;;;;;;;;13.96;24.14;102580.66;4872944;29;19931;-77
2021/10/07 12:04:08;;;;;;;;;;;;;;;13.83;24.17;102579.50;4872678;29;20052;-77
2021/10/07 12:06:35;;;;;;;;;;;;;;;13.70;24.48;102583.56;4872850;29;19927;-75
2021/10/07 12:09:11;;;;;;;;;;;;;;;13.65;24.47;102584.34;4860996;29;19925;-77
2021/10/07 12:11:39;;;;;;;;;;;;;;;13.60;24.48;102583.34;4872229;29;20333;-76
2021/10/07 12:14:05;;;;;;;;;;;;;;;13.46;24.96;102573.44;4871538;29;19928;-74
2021/10/07 12:16:37;;;;;;;;;;;;;;;13.33;25.13;102574.00;4872593;29;20071;-76
2021/10/07 12:19:05;;;;;;;;;;;;;;;13.28;25.46;102567.75;4857385;29;19928;-75
2021/10/07 12:21:32;;;;;;;;;;;;;;;13.28;25.38;102565.13;4858180;29;19984;-74
2021/10/07 12:24:02;;;;;;;;;;;;;;;13.30;25.47;102566.06;4873587;29;19977;-76
2021/10/07 12:26:46;;;;;;;;;;;;;;;13.24;25.71;102562.44;4871082;29;19989;-75
2021/10/07 12:29:16;;;;;;;;;;;;;;;13.19;25.71;102557.97;4872393;29;19924;-74
2021/10/07 12:31:50;;;;;;;;;;;;;;;13.14;25.93;102560.44;4875147;29;20332;-77
2021/10/07 12:34:18;;;;;;;;;;;;;;;13.09;25.86;102552.50;4858646;29;19987;-76
2021/10/07 12:37:06;;;;;;;;;;;;;;;13.12;26.09;102556.94;4874408;29;19931;-75
2021/10/07 12:39:42;;;;;;;;;;;;;;;13.16;25.91;102553.53;4874659;29;20423;-76
2021/10/07 12:42:09;;;;;;;;;;;;;;;13.07;25.92;102548.09;4856218;29;19973;-75
2021/10/07 12:44:43;;;;;;;;;;;;;;;12.89;26.48;102546.78;4874282;29;19967;-74
2021/10/07 12:47:14;;;;;;;;;;;;;;;12.86;26.99;102553.66;4872992;29;19923;-77
2021/10/07 12:49:41;;;;;;;;;;;;;;;12.84;27.01;102558.84;4870934;29;19979;-76
2021/10/07 12:52:12;;;;;;;;;;;;;;;12.71;27.29;102544.59;4859505;29;19991;-76